sensor_id;sensor_type;location;lat;lon;timestamp;pressure;altitude;pressure_sealevel;temperature;humidity
27294;BME280;14785;52.556;13.430;2022-10-31T00:00:51;101040.75;;;17.06;100.00
27294;BME280;14785;52.556;13.430;2022-10-31T00:03:17;101038.16;;;17.13;100.00
27294;BME280;14785;52.556;13.430;2022-10-31T00:05:43;101038.03;;;17.21;100.00
27294;BME280;14785;52.556;13.430;2022-10-31T00:08:09;101039.97;;;17.27;100.00
27294;BME280;14785;52.556;13.430;2022-10-31T00:10:40;101039.94;;;17.06;100.00
27294;BME280;14785;52.556;13.430;2022-10-31T00:13:06;101044.03;;;16.87;100.00
27294;BME280;14785;52.556;13.430;2022-10-31T00:15:33;101039.66;;;17.01;100.00
27294;BME280;14785;52.556;13.430;2022-10-31T00:17:59;101037.31;;;17.12;100.00
27294;BME280;14785;52.556;13.430;2022-10-31T00:20:24;101045.56;;;17.11;100.00
27294;BME280;14785;52.556;13.430;2022-10-31T00:22:50;101048.75;;;17.00;100.00
27294;BME280;14785;52.556;13.430;2022-10-31T00:25:15;101052.28;;;16.86;100.00
27294;BME280;14785;52.556;13.430;2022-10-31T00:27:41;101053.56;;;16.90;100.00
27294;BME280;14785;52.556;13.430;2022-10-31T00:30:06;101056.06;;;16.91;100.00
27294;BME280;14785;52.556;13.430;2022-10-31T00:32:32;101054.78;;;16.87;100.00
27294;BME280;14785;52.556;13.430;2022-10-31T00:34:57;101062.28;;;16.92;100.00
27294;BME280;14785;52.556;13.430;2022-10-31T00:37:23;101060.63;;;16.91;100.00
27294;BME280;14785;52.556;13.430;2022-10-31T00:39:48;101054.28;;;17.13;100.00
27294;BME280;14785;52.556;13.430;2022-10-31T00:42:15;101056.50;;;17.24;100.00
27294;BME280;14785;52.556;13.430;2022-10-31T00:44:41;101059.03;;;17.32;100.00
27294;BME280;14785;52.556;13.430;2022-10-31T00:47:06;101062.38;;;17.34;100.00
27294;BME280;14785;52.556;13.430;2022-10-31T00:49:31;101061.16;;;17.37;100.00
27294;BME280;14785;52.556;13.430;2022-10-31T00:51:57;101059.41;;;17.29;100.00
27294;BME280;14785;52.556;13.430;2022-10-31T00:54:23;101068.50;;;17.28;100.00
27294;BME280;14785;52.556;13.430;2022-10-31T00:56:49;101065.31;;;17.18;100.00
27294;BME280;14785;52.556;13.430;2022-10-31T00:59:14;101063.91;;;17.22;100.00
27294;BME280;14785;52.556;13.430;2022-10-31T01:01:39;101073.00;;;17.21;100.00
27294;BME280;14785;52.556;13.430;2022-10-31T01:04:04;101070.53;;;17.26;100.00
27294;BME280;14785;52.556;13.430;2022-10-31T01:06:30;101076.59;;;17.28;100.00
27294;BME280;14785;52.556;13.430;2022-10-31T01:08:56;101082.44;;;17.17;100.00
27294;BME280;14785;52.556;13.430;2022-10-31T01:11:22;101087.63;;;17.33;100.00
27294;BME280;14785;52.556;13.430;2022-10-31T01:13:52;101079.69;;;16.96;100.00
27294;BME280;14785;52.556;13.430;2022-10-31T01:16:19;101081.38;;;16.68;100.00
27294;BME280;14785;52.556;13.430;2022-10-31T01:18:46;101090.13;;;15.96;100.00
27294;BME280;14785;52.556;13.430;2022-10-31T01:21:14;101102.19;;;15.55;100.00
27294;BME280;14785;52.556;13.430;2022-10-31T01:23:40;101104.06;;;15.15;100.00
27294;BME280;14785;52.556;13.430;2022-10-31T01:28:46;101104.44;;;15.04;100.00
27294;BME280;14785;52.556;13.430;2022-10-31T01:31:12;101115.50;;;15.01;100.00
27294;BME280;14785;52.556;13.430;2022-10-31T01:33:38;101110.09;;;15.09;100.00
27294;BME280;14785;52.556;13.430;2022-10-31T01:36:18;101114.16;;;15.05;100.00
27294;BME280;14785;52.556;13.430;2022-10-31T01:38:45;101119.47;;;15.13;100.00
27294;BME280;14785;52.556;13.430;2022-10-31T01:41:12;101116.59;;;15.15;100.00
27294;BME280;14785;52.556;13.430;2022-10-31T01:43:43;101123.13;;;15.20;100.00
27294;BME280;14785;52.556;13.430;2022-10-31T01:46:08;101116.50;;;15.08;100.00
27294;BME280;14785;52.556;13.430;2022-10-31T01:48:34;101122.81;;;15.15;100.00
27294;BME280;14785;52.556;13.430;2022-10-31T01:51:01;101120.81;;;15.17;100.00
27294;BME280;14785;52.556;13.430;2022-10-31T01:53:30;101111.25;;;15.15;100.00
27294;BME280;14785;52.556;13.430;2022-10-31T01:55:56;101115.78;;;15.14;100.00
27294;BME280;14785;52.556;13.430;2022-10-31T01:58:24;101118.31;;;15.47;100.00
27294;BME280;14785;52.556;13.430;2022-10-31T02:00:55;101123.47;;;15.17;100.00
27294;BME280;14785;52.556;13.430;2022-10-31T02:03:21;101119.22;;;14.92;100.00
27294;BME280;14785;52.556;13.430;2022-10-31T02:05:47;101125.41;;;15.01;100.00
27294;BME280;14785;52.556;13.430;2022-10-31T02:08:27;101117.91;;;14.88;100.00
27294;BME280;14785;52.556;13.430;2022-10-31T02:10:53;101122.22;;;14.89;100.00
27294;BME280;14785;52.556;13.430;2022-10-31T02:13:19;101132.56;;;15.08;100.00
27294;BME280;14785;52.556;13.430;2022-10-31T02:15:47;101138.66;;;14.86;100.00
27294;BME280;14785;52.556;13.430;2022-10-31T02:18:14;101133.59;;;14.99;100.00
27294;BME280;14785;52.556;13.430;2022-10-31T02:21:01;101122.56;;;14.86;100.00
27294;BME280;14785;52.556;13.430;2022-10-31T02:23:40;101122.94;;;14.83;100.00
27294;BME280;14785;52.556;13.430;2022-10-31T02:29:30;101114.88;;;14.91;100.00
27294;BME280;14785;52.556;13.430;2022-10-31T02:36:53;101117.19;;;14.94;100.00
27294;BME280;14785;52.556;13.430;2022-10-31T02:42:25;101119.78;;;15.80;100.00
27294;BME280;14785;52.556;13.430;2022-10-31T02:47:37;101109.78;;;16.11;100.00
27294;BME280;14785;52.556;13.430;2022-10-31T02:50:14;101112.44;;;15.74;100.00
27294;BME280;14785;52.556;13.430;2022-10-31T02:52:41;101112.44;;;15.12;100.00
27294;BME280;14785;52.556;13.430;2022-10-31T02:57:48;101132.31;;;14.79;100.00
27294;BME280;14785;52.556;13.430;2022-10-31T03:00:15;101128.34;;;14.67;100.00
27294;BME280;14785;52.556;13.430;2022-10-31T03:11:08;101154.78;;;14.22;100.00
27294;BME280;14785;52.556;13.430;2022-10-31T03:13:44;101152.63;;;14.18;100.00
27294;BME280;14785;52.556;13.430;2022-10-31T03:19:11;101167.16;;;14.07;100.00
27294;BME280;14785;52.556;13.430;2022-10-31T03:24:26;101164.84;;;14.12;100.00
27294;BME280;14785;52.556;13.430;2022-10-31T03:26:56;101173.19;;;14.09;100.00
27294;BME280;14785;52.556;13.430;2022-10-31T03:29:26;101180.22;;;14.18;100.00
27294;BME280;14785;52.556;13.430;2022-10-31T03:32:03;101180.38;;;14.09;100.00
27294;BME280;14785;52.556;13.430;2022-10-31T03:34:31;101181.22;;;14.09;100.00
27294;BME280;14785;52.556;13.430;2022-10-31T03:37:01;101177.72;;;14.17;100.00
27294;BME280;14785;52.556;13.430;2022-10-31T03:39:31;101183.41;;;14.14;100.00
27294;BME280;14785;52.556;13.430;2022-10-31T03:42:05;101188.41;;;14.17;100.00
27294;BME280;14785;52.556;13.430;2022-10-31T03:44:34;101194.41;;;14.03;100.00
27294;BME280;14785;52.556;13.430;2022-10-31T03:47:02;101205.94;;;13.95;100.00
27294;BME280;14785;52.556;13.430;2022-10-31T03:49:29;101193.28;;;14.05;100.00
27294;BME280;14785;52.556;13.430;2022-10-31T03:54:46;101202.09;;;14.06;100.00
27294;BME280;14785;52.556;13.430;2022-10-31T03:59:53;101196.97;;;14.28;100.00
27294;BME280;14785;52.556;13.430;2022-10-31T04:02:25;101197.81;;;14.29;100.00
27294;BME280;14785;52.556;13.430;2022-10-31T04:04:52;101201.00;;;14.24;100.00
27294;BME280;14785;52.556;13.430;2022-10-31T04:07:18;101194.63;;;14.25;100.00
27294;BME280;14785;52.556;13.430;2022-10-31T04:09:47;101187.75;;;14.23;100.00
27294;BME280;14785;52.556;13.430;2022-10-31T04:12:15;101199.63;;;14.20;100.00
27294;BME280;14785;52.556;13.430;2022-10-31T04:14:43;101197.94;;;14.19;100.00
27294;BME280;14785;52.556;13.430;2022-10-31T04:17:13;101205.31;;;14.17;100.00
27294;BME280;14785;52.556;13.430;2022-10-31T04:19:40;101202.97;;;14.38;100.00
27294;BME280;14785;52.556;13.430;2022-10-31T04:22:06;101208.97;;;14.00;100.00
27294;BME280;14785;52.556;13.430;2022-10-31T04:24:31;101206.91;;;13.86;100.00
27294;BME280;14785;52.556;13.430;2022-10-31T04:26:56;101206.63;;;14.13;100.00
27294;BME280;14785;52.556;13.430;2022-10-31T04:29:22;101218.69;;;14.17;100.00
27294;BME280;14785;52.556;13.430;2022-10-31T04:31:47;101211.31;;;14.11;100.00
27294;BME280;14785;52.556;13.430;2022-10-31T04:34:12;101219.13;;;13.97;100.00
27294;BME280;14785;52.556;13.430;2022-10-31T04:36:38;101217.63;;;13.86;100.00
27294;BME280;14785;52.556;13.430;2022-10-31T04:39:03;101214.22;;;13.68;100.00
27294;BME280;14785;52.556;13.430;2022-10-31T04:41:30;101211.88;;;13.57;100.00
27294;BME280;14785;52.556;13.430;2022-10-31T04:43:55;101210.50;;;13.53;100.00
27294;BME280;14785;52.556;13.430;2022-10-31T04:46:20;101220.06;;;13.64;100.00
27294;BME280;14785;52.556;13.430;2022-10-31T04:48:46;101220.00;;;13.48;100.00
27294;BME280;14785;52.556;13.430;2022-10-31T04:51:12;101221.19;;;13.53;100.00
27294;BME280;14785;52.556;13.430;2022-10-31T04:53:37;101233.50;;;13.38;100.00
27294;BME280;14785;52.556;13.430;2022-10-31T04:56:03;101228.16;;;13.38;100.00
27294;BME280;14785;52.556;13.430;2022-10-31T04:58:30;101226.16;;;13.40;100.00
27294;BME280;14785;52.556;13.430;2022-10-31T05:00:55;101229.31;;;13.35;100.00
27294;BME280;14785;52.556;13.430;2022-10-31T05:03:21;101227.13;;;13.31;100.00
27294;BME280;14785;52.556;13.430;2022-10-31T05:05:47;101230.59;;;13.23;100.00
27294;BME280;14785;52.556;13.430;2022-10-31T05:08:13;101228.41;;;13.19;100.00
27294;BME280;14785;52.556;13.430;2022-10-31T05:10:39;101234.59;;;13.19;100.00
27294;BME280;14785;52.556;13.430;2022-10-31T05:13:05;101230.59;;;13.23;100.00
27294;BME280;14785;52.556;13.430;2022-10-31T05:15:31;101237.31;;;13.27;100.00
27294;BME280;14785;52.556;13.430;2022-10-31T05:17:56;101238.44;;;13.25;100.00
27294;BME280;14785;52.556;13.430;2022-10-31T05:20:25;101242.75;;;13.18;100.00
27294;BME280;14785;52.556;13.430;2022-10-31T05:22:52;101246.31;;;13.26;100.00
27294;BME280;14785;52.556;13.430;2022-10-31T05:25:20;101249.97;;;13.25;100.00
27294;BME280;14785;52.556;13.430;2022-10-31T05:27:47;101244.38;;;13.44;100.00
27294;BME280;14785;52.556;13.430;2022-10-31T05:30:15;101246.31;;;13.26;100.00
27294;BME280;14785;52.556;13.430;2022-10-31T05:32:43;101255.81;;;13.21;100.00
27294;BME280;14785;52.556;13.430;2022-10-31T05:35:12;101254.78;;;13.22;100.00
27294;BME280;14785;52.556;13.430;2022-10-31T05:37:38;101255.94;;;13.45;100.00
27294;BME280;14785;52.556;13.430;2022-10-31T05:40:06;101255.41;;;13.41;100.00
27294;BME280;14785;52.556;13.430;2022-10-31T05:42:31;101242.47;;;13.63;100.00
27294;BME280;14785;52.556;13.430;2022-10-31T05:44:57;101248.06;;;13.43;100.00
27294;BME280;14785;52.556;13.430;2022-10-31T05:47:23;101248.88;;;13.44;100.00
27294;BME280;14785;52.556;13.430;2022-10-31T05:49:48;101252.56;;;13.43;100.00
27294;BME280;14785;52.556;13.430;2022-10-31T05:52:13;101252.81;;;13.24;100.00
27294;BME280;14785;52.556;13.430;2022-10-31T05:54:39;101250.56;;;13.45;100.00
27294;BME280;14785;52.556;13.430;2022-10-31T05:57:04;101252.75;;;13.16;100.00
27294;BME280;14785;52.556;13.430;2022-10-31T05:59:31;101252.56;;;13.43;100.00
27294;BME280;14785;52.556;13.430;2022-10-31T06:01:56;101261.78;;;13.15;100.00
27294;BME280;14785;52.556;13.430;2022-10-31T06:04:21;101258.88;;;13.08;100.00
27294;BME280;14785;52.556;13.430;2022-10-31T06:06:47;101264.22;;;13.08;100.00
27294;BME280;14785;52.556;13.430;2022-10-31T06:09:12;101271.47;;;13.16;100.00
27294;BME280;14785;52.556;13.430;2022-10-31T06:11:37;101272.84;;;13.20;100.00
27294;BME280;14785;52.556;13.430;2022-10-31T06:14:04;101269.69;;;13.24;100.00
27294;BME280;14785;52.556;13.430;2022-10-31T06:16:30;101274.28;;;13.14;100.00
27294;BME280;14785;52.556;13.430;2022-10-31T06:18:56;101278.84;;;13.22;100.00
27294;BME280;14785;52.556;13.430;2022-10-31T06:21:21;101275.75;;;13.09;100.00
27294;BME280;14785;52.556;13.430;2022-10-31T06:23:46;101289.81;;;13.11;100.00
27294;BME280;14785;52.556;13.430;2022-10-31T06:26:12;101285.75;;;13.07;100.00
27294;BME280;14785;52.556;13.430;2022-10-31T06:28:40;101286.19;;;13.20;100.00
27294;BME280;14785;52.556;13.430;2022-10-31T06:31:06;101285.88;;;13.23;100.00
27294;BME280;14785;52.556;13.430;2022-10-31T06:33:31;101291.31;;;13.47;100.00
27294;BME280;14785;52.556;13.430;2022-10-31T06:35:57;101286.66;;;13.49;100.00
27294;BME280;14785;52.556;13.430;2022-10-31T06:38:22;101296.03;;;13.53;100.00
27294;BME280;14785;52.556;13.430;2022-10-31T06:40:48;101295.91;;;13.63;100.00
27294;BME280;14785;52.556;13.430;2022-10-31T06:43:13;101292.00;;;13.83;100.00
27294;BME280;14785;52.556;13.430;2022-10-31T06:45:40;101296.19;;;13.52;100.00
27294;BME280;14785;52.556;13.430;2022-10-31T06:48:07;101291.31;;;13.47;100.00
27294;BME280;14785;52.556;13.430;2022-10-31T06:50:32;101299.38;;;13.55;100.00
27294;BME280;14785;52.556;13.430;2022-10-31T06:52:58;101300.88;;;13.50;100.00
27294;BME280;14785;52.556;13.430;2022-10-31T06:55:24;101300.41;;;13.62;100.00
27294;BME280;14785;52.556;13.430;2022-10-31T06:58:00;101295.25;;;14.10;100.00
27294;BME280;14785;52.556;13.430;2022-10-31T07:00:28;101299.66;;;13.44;100.00
27294;BME280;14785;52.556;13.430;2022-10-31T07:02:58;101320.69;;;13.39;100.00
27294;BME280;14785;52.556;13.430;2022-10-31T07:05:27;101334.22;;;13.37;100.00
27294;BME280;14785;52.556;13.430;2022-10-31T07:07:57;101326.28;;;13.87;100.00
27294;BME280;14785;52.556;13.430;2022-10-31T07:10:24;101325.84;;;13.66;100.00
27294;BME280;14785;52.556;13.430;2022-10-31T07:12:54;101333.97;;;13.57;100.00
27294;BME280;14785;52.556;13.430;2022-10-31T07:15:20;101319.44;;;13.51;100.00
27294;BME280;14785;52.556;13.430;2022-10-31T07:17:46;101325.63;;;13.93;100.00
27294;BME280;14785;52.556;13.430;2022-10-31T07:20:13;101319.41;;;14.26;100.00
27294;BME280;14785;52.556;13.430;2022-10-31T07:22:38;101328.00;;;14.04;100.00
27294;BME280;14785;52.556;13.430;2022-10-31T07:25:04;101324.47;;;13.96;100.00
27294;BME280;14785;52.556;13.430;2022-10-31T07:27:41;101329.78;;;14.37;100.00
27294;BME280;14785;52.556;13.430;2022-10-31T07:30:07;101326.84;;;14.07;100.00
27294;BME280;14785;52.556;13.430;2022-10-31T07:35:09;101329.03;;;14.11;100.00
27294;BME280;14785;52.556;13.430;2022-10-31T07:37:35;101333.13;;;14.31;100.00
27294;BME280;14785;52.556;13.430;2022-10-31T07:40:03;101331.81;;;14.59;100.00
27294;BME280;14785;52.556;13.430;2022-10-31T07:42:29;101335.50;;;14.74;100.00
27294;BME280;14785;52.556;13.430;2022-10-31T07:44:59;101342.88;;;15.12;100.00
27294;BME280;14785;52.556;13.430;2022-10-31T07:47:24;101335.53;;;15.39;100.00
27294;BME280;14785;52.556;13.430;2022-10-31T07:49:52;101343.91;;;14.87;100.00
27294;BME280;14785;52.556;13.430;2022-10-31T07:52:18;101344.53;;;15.13;100.00
27294;BME280;14785;52.556;13.430;2022-10-31T07:54:43;101343.53;;;14.42;100.00
27294;BME280;14785;52.556;13.430;2022-10-31T07:57:08;101347.22;;;14.49;100.00
27294;BME280;14785;52.556;13.430;2022-10-31T07:59:34;101355.28;;;14.81;100.00
27294;BME280;14785;52.556;13.430;2022-10-31T08:01:59;101350.75;;;14.82;100.00
27294;BME280;14785;52.556;13.430;2022-10-31T08:04:24;101352.72;;;14.48;100.00
27294;BME280;14785;52.556;13.430;2022-10-31T08:06:51;101361.47;;;15.22;100.00
27294;BME280;14785;52.556;13.430;2022-10-31T08:09:18;101363.81;;;14.77;100.00
27294;BME280;14785;52.556;13.430;2022-10-31T08:11:43;101363.66;;;14.78;100.00
27294;BME280;14785;52.556;13.430;2022-10-31T08:14:09;101359.63;;;15.06;100.00
27294;BME280;14785;52.556;13.430;2022-10-31T08:16:34;101359.94;;;14.55;100.00
27294;BME280;14785;52.556;13.430;2022-10-31T08:18:59;101366.59;;;14.35;100.00
27294;BME280;14785;52.556;13.430;2022-10-31T08:21:25;101367.28;;;14.53;100.00
27294;BME280;14785;52.556;13.430;2022-10-31T08:23:51;101366.25;;;14.38;100.00
27294;BME280;14785;52.556;13.430;2022-10-31T08:26:16;101376.03;;;15.03;100.00
27294;BME280;14785;52.556;13.430;2022-10-31T08:28:42;101373.38;;;14.87;100.00
27294;BME280;14785;52.556;13.430;2022-10-31T08:31:11;101364.31;;;14.80;100.00
27294;BME280;14785;52.556;13.430;2022-10-31T08:33:40;101371.19;;;14.75;100.00
27294;BME280;14785;52.556;13.430;2022-10-31T08:36:05;101385.22;;;14.69;100.00
27294;BME280;14785;52.556;13.430;2022-10-31T08:38:33;101389.66;;;14.28;100.00
27294;BME280;14785;52.556;13.430;2022-10-31T08:40:59;101378.66;;;14.47;100.00
27294;BME280;14785;52.556;13.430;2022-10-31T08:43:24;101388.44;;;15.04;100.00
27294;BME280;14785;52.556;13.430;2022-10-31T08:45:49;101380.72;;;15.42;100.00
27294;BME280;14785;52.556;13.430;2022-10-31T08:48:16;101367.50;;;15.95;100.00
27294;BME280;14785;52.556;13.430;2022-10-31T08:50:43;101348.13;;;15.77;100.00
27294;BME280;14785;52.556;13.430;2022-10-31T08:53:12;101347.81;;;16.41;100.00
27294;BME280;14785;52.556;13.430;2022-10-31T08:55:41;101342.53;;;16.25;100.00
27294;BME280;14785;52.556;13.430;2022-10-31T08:58:09;101340.22;;;16.52;100.00
27294;BME280;14785;52.556;13.430;2022-10-31T09:00:35;101331.56;;;16.12;100.00
27294;BME280;14785;52.556;13.430;2022-10-31T09:03:09;101337.25;;;16.47;100.00
27294;BME280;14785;52.556;13.430;2022-10-31T09:05:35;101341.13;;;16.37;100.00
27294;BME280;14785;52.556;13.430;2022-10-31T09:08:02;101355.53;;;16.44;100.00
27294;BME280;14785;52.556;13.430;2022-10-31T09:10:31;101353.97;;;16.19;100.00
27294;BME280;14785;52.556;13.430;2022-10-31T09:12:59;101354.13;;;16.25;100.00
27294;BME280;14785;52.556;13.430;2022-10-31T09:15:27;101354.91;;;16.87;100.00
27294;BME280;14785;52.556;13.430;2022-10-31T09:17:53;101348.69;;;17.09;100.00
27294;BME280;14785;52.556;13.430;2022-10-31T09:20:18;101355.59;;;16.58;100.00
27294;BME280;14785;52.556;13.430;2022-10-31T09:22:44;101352.84;;;16.44;100.00
27294;BME280;14785;52.556;13.430;2022-10-31T09:25:10;101367.94;;;15.76;100.00
27294;BME280;14785;52.556;13.430;2022-10-31T09:27:36;101370.91;;;15.81;100.00
27294;BME280;14785;52.556;13.430;2022-10-31T09:30:02;101386.59;;;15.45;100.00
27294;BME280;14785;52.556;13.430;2022-10-31T09:32:27;101389.13;;;15.39;100.00
27294;BME280;14785;52.556;13.430;2022-10-31T09:34:54;101397.53;;;15.90;100.00
27294;BME280;14785;52.556;13.430;2022-10-31T09:37:19;101393.97;;;15.43;100.00
27294;BME280;14785;52.556;13.430;2022-10-31T09:39:45;101392.63;;;15.31;100.00
27294;BME280;14785;52.556;13.430;2022-10-31T09:42:41;101398.00;;;15.39;100.00
27294;BME280;14785;52.556;13.430;2022-10-31T09:45:27;101401.84;;;15.12;100.00
27294;BME280;14785;52.556;13.430;2022-10-31T09:51:12;101405.53;;;15.27;100.00
27294;BME280;14785;52.556;13.430;2022-10-31T09:56:25;101413.56;;;15.36;100.00
27294;BME280;14785;52.556;13.430;2022-10-31T09:58:59;101409.47;;;15.88;100.00
27294;BME280;14785;52.556;13.430;2022-10-31T10:07:16;101377.53;;;17.81;100.00
27294;BME280;14785;52.556;13.430;2022-10-31T10:09:45;101366.59;;;17.97;100.00
27294;BME280;14785;52.556;13.430;2022-10-31T10:17:41;101352.13;;;18.34;100.00
27294;BME280;14785;52.556;13.430;2022-10-31T10:20:18;101356.88;;;18.67;100.00
27294;BME280;14785;52.556;13.430;2022-10-31T10:25:37;101339.88;;;20.71;100.00
27294;BME280;14785;52.556;13.430;2022-10-31T10:28:31;101351.88;;;19.07;100.00
27294;BME280;14785;52.556;13.430;2022-10-31T10:31:14;101347.22;;;20.24;100.00
27294;BME280;14785;52.556;13.430;2022-10-31T10:33:55;101348.03;;;18.52;100.00
27294;BME280;14785;52.556;13.430;2022-10-31T10:38:56;101340.97;;;21.03;100.00
27294;BME280;14785;52.556;13.430;2022-10-31T10:41:26;101333.47;;;21.44;100.00
27294;BME280;14785;52.556;13.430;2022-10-31T10:43:56;101331.13;;;20.03;100.00
27294;BME280;14785;52.556;13.430;2022-10-31T10:52:10;101317.53;;;21.87;100.00
27294;BME280;14785;52.556;13.430;2022-10-31T10:54:56;101326.66;;;22.05;100.00
27294;BME280;14785;52.556;13.430;2022-10-31T10:59:55;101325.00;;;20.22;100.00
27294;BME280;14785;52.556;13.430;2022-10-31T11:02:24;101325.53;;;20.84;100.00
27294;BME280;14785;52.556;13.430;2022-10-31T11:04:52;101331.84;;;20.18;100.00
27294;BME280;14785;52.556;13.430;2022-10-31T11:07:18;101337.81;;;18.90;100.00
27294;BME280;14785;52.556;13.430;2022-10-31T11:09:45;101340.13;;;19.42;100.00
27294;BME280;14785;52.556;13.430;2022-10-31T11:12:43;101336.56;;;19.69;100.00
27294;BME280;14785;52.556;13.430;2022-10-31T11:15:22;101325.03;;;20.35;100.00
27294;BME280;14785;52.556;13.430;2022-10-31T11:17:55;101323.47;;;19.66;100.00
27294;BME280;14785;52.556;13.430;2022-10-31T11:20:30;101323.25;;;19.67;100.00
27294;BME280;14785;52.556;13.430;2022-10-31T11:23:16;101314.22;;;20.22;100.00
27294;BME280;14785;52.556;13.430;2022-10-31T11:28:21;101313.47;;;20.87;100.00
27294;BME280;14785;52.556;13.430;2022-10-31T11:30:53;101304.91;;;22.18;100.00
27294;BME280;14785;52.556;13.430;2022-10-31T11:33:29;101307.59;;;22.25;100.00
27294;BME280;14785;52.556;13.430;2022-10-31T11:36:00;101300.97;;;20.79;100.00
27294;BME280;14785;52.556;13.430;2022-10-31T11:38:42;101307.84;;;20.02;100.00
27294;BME280;14785;52.556;13.430;2022-10-31T11:41:12;101311.59;;;21.46;100.00
27294;BME280;14785;52.556;13.430;2022-10-31T11:43:39;101297.41;;;22.83;100.00
27294;BME280;14785;52.556;13.430;2022-10-31T11:46:25;101307.34;;;22.95;100.00
27294;BME280;14785;52.556;13.430;2022-10-31T11:48:53;101303.72;;;22.45;100.00
27294;BME280;14785;52.556;13.430;2022-10-31T11:51:26;101304.88;;;22.25;100.00
27294;BME280;14785;52.556;13.430;2022-10-31T11:53:58;101312.88;;;22.13;100.00
27294;BME280;14785;52.556;13.430;2022-10-31T11:56:24;101316.59;;;20.77;100.00
27294;BME280;14785;52.556;13.430;2022-10-31T11:59:05;101308.53;;;22.06;100.00
27294;BME280;14785;52.556;13.430;2022-10-31T12:01:32;101302.03;;;20.65;100.00
27294;BME280;14785;52.556;13.430;2022-10-31T12:04:09;101305.19;;;20.95;100.00
27294;BME280;14785;52.556;13.430;2022-10-31T12:06:38;101299.00;;;20.21;100.00
27294;BME280;14785;52.556;13.430;2022-10-31T12:09:34;101296.63;;;20.91;100.00
27294;BME280;14785;52.556;13.430;2022-10-31T12:17:14;101295.88;;;21.87;100.00
27294;BME280;14785;52.556;13.430;2022-10-31T12:20:06;101296.84;;;21.29;100.00
27294;BME280;14785;52.556;13.430;2022-10-31T12:28:51;101285.09;;;23.90;100.00
27294;BME280;14785;52.556;13.430;2022-10-31T12:34:16;101278.25;;;24.47;100.00
27294;BME280;14785;52.556;13.430;2022-10-31T12:42:38;101274.09;;;24.85;100.00
27294;BME280;14785;52.556;13.430;2022-10-31T12:45:34;101276.31;;;24.65;100.00
27294;BME280;14785;52.556;13.430;2022-10-31T12:58:53;101274.16;;;25.08;100.00
27294;BME280;14785;52.556;13.430;2022-10-31T13:01:24;101271.81;;;23.46;100.00
27294;BME280;14785;52.556;13.430;2022-10-31T13:04:05;101271.69;;;22.29;100.00
27294;BME280;14785;52.556;13.430;2022-10-31T13:06:47;101268.06;;;23.47;100.00
27294;BME280;14785;52.556;13.430;2022-10-31T13:09:22;101252.47;;;23.90;100.00
27294;BME280;14785;52.556;13.430;2022-10-31T13:12:11;101252.06;;;24.34;100.00
27294;BME280;14785;52.556;13.430;2022-10-31T13:14:49;101251.03;;;24.35;100.00
27294;BME280;14785;52.556;13.430;2022-10-31T13:17:25;101254.88;;;24.57;100.00
27294;BME280;14785;52.556;13.430;2022-10-31T13:19:55;101254.97;;;24.51;100.00
27294;BME280;14785;52.556;13.430;2022-10-31T13:22:30;101254.63;;;24.59;100.00
27294;BME280;14785;52.556;13.430;2022-10-31T13:27:45;101248.44;;;24.81;100.00
27294;BME280;14785;52.556;13.430;2022-10-31T13:30:30;101249.34;;;24.22;100.00
27294;BME280;14785;52.556;13.430;2022-10-31T13:33:20;101250.94;;;23.22;100.00
27294;BME280;14785;52.556;13.430;2022-10-31T13:43:59;101245.00;;;23.85;100.00
27294;BME280;14785;52.556;13.430;2022-10-31T13:46:37;101240.84;;;23.83;100.00
27294;BME280;14785;52.556;13.430;2022-10-31T13:49:18;101232.16;;;24.10;100.00
27294;BME280;14785;52.556;13.430;2022-10-31T13:51:46;101238.91;;;24.19;100.00
27294;BME280;14785;52.556;13.430;2022-10-31T13:54:32;101235.28;;;23.96;100.00
27294;BME280;14785;52.556;13.430;2022-10-31T13:56:58;101233.94;;;23.69;100.00
27294;BME280;14785;52.556;13.430;2022-10-31T13:59:25;101236.09;;;22.82;100.00
27294;BME280;14785;52.556;13.430;2022-10-31T14:01:56;101233.50;;;22.37;100.00
27294;BME280;14785;52.556;13.430;2022-10-31T14:04:28;101224.63;;;21.86;100.00
27294;BME280;14785;52.556;13.430;2022-10-31T14:07:09;101234.53;;;22.68;100.00
27294;BME280;14785;52.556;13.430;2022-10-31T14:09:39;101228.78;;;22.82;100.00
27294;BME280;14785;52.556;13.430;2022-10-31T14:12:13;101226.78;;;22.96;100.00
27294;BME280;14785;52.556;13.430;2022-10-31T14:14:52;101226.38;;;23.17;100.00
27294;BME280;14785;52.556;13.430;2022-10-31T14:17:25;101210.81;;;23.30;100.00
27294;BME280;14785;52.556;13.430;2022-10-31T14:22:37;101218.34;;;23.22;100.00
27294;BME280;14785;52.556;13.430;2022-10-31T14:27:56;101222.78;;;20.32;100.00
27294;BME280;14785;52.556;13.430;2022-10-31T14:30:25;101220.31;;;19.30;100.00
27294;BME280;14785;52.556;13.430;2022-10-31T14:32:58;101225.59;;;19.17;100.00
27294;BME280;14785;52.556;13.430;2022-10-31T14:35:43;101231.09;;;19.30;100.00
27294;BME280;14785;52.556;13.430;2022-10-31T14:41:03;101231.91;;;18.47;100.00
27294;BME280;14785;52.556;13.430;2022-10-31T14:49:12;101229.06;;;18.76;100.00
27294;BME280;14785;52.556;13.430;2022-10-31T14:51:47;101218.25;;;19.32;100.00